Blue Star Naxos — SZUI — position and weather

sailwx.info

Track history (hours):
 
Tides and Currents Weather Stations Pressure Air Temp Water Temp Dewpoint Dewpoint Depression Visibility Wind Speed Wind Dir Waves Ship Positions

Blue Star Naxos

Last reported at 2014-Jul-23 00:34 UTC. Time now 2014-Jul-23 03:15 UTC.
Position N 37°57' E 023°38'.

Length 124 m; draft 5 m.

Type: Passenger vessel. MMSI: 239923000.

Date/timePositionNaut miles runAvg speedWind from/ knotsBaromVisibWave heightAir tempDewpointWater temp
2014-Jul-23 00:34N 37°57' E 023°38'0 0.0
2014-Jul-22 23:34N 37°57' E 023°38'0 0.0
2014-Jul-22 22:34N 37°57' E 023°38'0 0.0
2014-Jul-22 21:34N 37°57' E 023°38'0 0.0
2014-Jul-22 20:34N 37°57' E 023°38'0 0.0
2014-Jul-22 19:33N 37°57' E 023°38'0 0.0
2014-Jul-22 18:33N 37°57' E 023°38'0 0.0
2014-Jul-22 17:34N 37°57' E 023°38'1 1.2
2014-Jul-22 16:34N 37°56' E 023°37'2120.5
2014-Jul-22 15:32N 37°39' E 023°53'2522.5
2014-Jul-22 14:25N 37°31' E 024°23'2023.0
2014-Jul-22 13:33N 37°31' E 024°48'8 8.4
2014-Jul-22 12:33N 37°26' E 024°57'1414.0
2014-Jul-22 11:33N 37°30' E 025°14'5 5.0
2014-Jul-22 10:33N 37°28' E 025°19'6 5.9
2014-Jul-22 09:33N 37°30' E 025°13'1413.4
2014-Jul-22 08:33N 37°26' E 024°57'1111.1
2014-Jul-22 07:33N 37°31' E 024°44'2423.1
2014-Jul-22 06:32N 37°31' E 024°15'2723.0
2014-Jul-22 05:21N 37°41' E 023°43'1620.5
2014-Jul-22 04:33N 37°57' E 023°38'0 0.2
2014-Jul-22 03:32N 37°57' E 023°38'0 0.0
2014-Jul-22 02:33N 37°57' E 023°38'0 0.0
2014-Jul-22 01:33N 37°57' E 023°38'0 0.0
2014-Jul-22 00:31N 37°57' E 023°38'0 0.0
2014-Jul-21 23:33N 37°57' E 023°38'0 0.0
2014-Jul-21 22:31N 37°57' E 023°38'0 0.0
2014-Jul-21 21:33N 37°57' E 023°38'0 0.0
2014-Jul-21 20:33N 37°57' E 023°38'0 0.0
2014-Jul-21 20:18N 37°57' E 023°38'0 0.0
2014-Jul-21 19:32N 37°57' E 023°38'0 0.0
2014-Jul-21 18:33N 37°57' E 023°38'0 0.0
2014-Jul-21 17:33N 37°57' E 023°38'2 2.5
2014-Jul-21 16:33N 37°55' E 023°38'4420.9
2014-Jul-21 14:27N 37°31' E 024°24'2622.5
2014-Jul-21 13:18N 37°29' E 024°57'4 4.0
2014-Jul-21 12:20N 37°28' E 025°02'911.2
2014-Jul-21 11:34N 37°30' E 025°12'6 6.2
2014-Jul-21 10:34N 37°28' E 025°20'6 6.0
2014-Jul-21 09:33N 37°30' E 025°13'1312.5
2014-Jul-21 08:29N 37°26' E 024°57'1212.6
2014-Jul-21 07:31N 37°31' E 024°42'2522.7
2014-Jul-21 06:25N 37°32' E 024°11'2423.0
2014-Jul-21 05:24N 37°41' E 023°44'15 1.2
2014-Jul-20 16:33N 37°55' E 023°38'4420.8
2014-Jul-20 14:27N 37°31' E 024°24'2622.8
2014-Jul-20 13:18N 37°30' E 024°57'4 4.0
2014-Jul-20 12:22N 37°28' E 025°01'911.6
2014-Jul-20 11:33N 37°30' E 025°13'6 5.7
2014-Jul-20 10:33N 37°28' E 025°19'9 9.1
2014-Jul-20 09:33N 37°32' E 025°09'1211.6
2014-Jul-20 08:33N 37°26' E 024°57'1212.2
2014-Jul-20 07:33N 37°31' E 024°42'2222.3
2014-Jul-20 06:33N 37°30' E 024°14'38 2.7
2014-Jul-19 16:30N 37°55' E 023°38'4320.6
2014-Jul-19 14:23N 37°31' E 024°23'2022.8
2014-Jul-19 13:31N 37°31' E 024°48'9 8.6
2014-Jul-19 12:32N 37°26' E 024°57'1313.1
2014-Jul-19 11:33N 37°30' E 025°12'6 6.2
2014-Jul-19 10:33N 37°28' E 025°19'9 9.1
2014-Jul-19 09:34N 37°32' E 025°09'1111.3
2014-Jul-19 08:33N 37°26' E 024°57'1111.6
2014-Jul-19 07:33N 37°31' E 024°43'2522.7
2014-Jul-19 06:29N 37°32' E 024°12'2122.9
2014-Jul-19 05:33N 37°39' E 023°47'1919.1
2014-Jul-19 04:33N 37°57' E 023°38'0 0.2
2014-Jul-19 03:33N 37°57' E 023°38'1211.7
2014-Jul-19 02:34N 37°46' E 023°43'6822.3
2014-Jul-18 23:31N 37°09' E 024°55'1211.9
2014-Jul-18 22:32N 37°05' E 025°09'1817.9
2014-Jul-18 21:32N 37°11' E 024°48'5123.0
2014-Jul-18 19:19N 37°35' E 023°51'1722.2
2014-Jul-18 18:32N 37°48' E 023°38'8 8.5
2014-Jul-18 17:33N 37°57' E 023°38'0 0.3
2014-Jul-18 16:33N 37°57' E 023°38'6120.0
2014-Jul-18 13:29N 37°31' E 024°49'8 8.2
2014-Jul-18 12:31N 37°26' E 024°57'1313.4
2014-Jul-18 11:33N 37°30' E 025°12'6 6.1
2014-Jul-18 10:32N 37°28' E 025°20'7 7.0
2014-Jul-18 09:33N 37°31' E 025°12'1312.5
2014-Jul-18 08:32N 37°26' E 024°57'1412.8
2014-Jul-18 07:25N 37°31' E 024°40'4922.0
2014-Jul-18 05:13N 37°44' E 023°41'13 2.6
2014-Jul-18 00:19N 37°57' E 023°38'0 0.0
2014-Jul-17 23:31N 37°57' E 023°38'0 0.0
2014-Jul-17 22:33N 37°57' E 023°38'0 0.0
2014-Jul-17 21:28N 37°57' E 023°38'0 0.0
2014-Jul-17 20:24N 37°57' E 023°38'0 0.0
2014-Jul-17 19:27N 37°57' E 023°38'0 0.0
2014-Jul-17 18:29N 37°57' E 023°38'0 0.0
2014-Jul-17 17:33N 37°57' E 023°38'1 1.4
2014-Jul-17 16:33N 37°56' E 023°37'6220.6
2014-Jul-17 13:34N 37°31' E 024°48'10 8.7
2014-Jul-17 12:25N 37°27' E 024°60'1113.0
2014-Jul-17 11:34N 37°30' E 025°13'5 5.3
2014-Jul-17 10:33N 37°28' E 025°19'7 7.3
2014-Jul-17 09:33N 37°31' E 025°11'1212.1
2014-Jul-17 08:32N 37°26' E 024°57'1111.5
2014-Jul-17 07:33N 37°31' E 024°43'2622.7
2014-Jul-17 06:25N 37°32' E 024°11'2323.1
2014-Jul-17 05:25N 37°40' E 023°44'1819.3
2014-Jul-17 04:31N 37°57' E 023°38'0 0.0
2014-Jul-17 03:33N 37°57' E 023°38'0 0.0
2014-Jul-17 02:33N 37°57' E 023°38'0 0.0
2014-Jul-17 01:33N 37°57' E 023°38'0 0.0
2014-Jul-17 00:31N 37°57' E 023°38'0 0.0
2014-Jul-16 23:33N 37°57' E 023°38'0 0.0
2014-Jul-16 22:33N 37°57' E 023°38'0 0.0
2014-Jul-16 21:32N 37°57' E 023°38'0 0.0
2014-Jul-16 20:32N 37°57' E 023°38'0 0.0
2014-Jul-16 19:33N 37°57' E 023°38'0 0.0
2014-Jul-16 18:31N 37°57' E 023°38'0 0.0
2014-Jul-16 17:33N 37°57' E 023°38'1313.5
2014-Jul-16 16:33N 37°44' E 023°44'4422.1
2014-Jul-16 14:33N 37°31' E 024°37'1615.8
2014-Jul-16 13:33N 37°26' E 024°57'9 9.1
2014-Jul-16 12:34N 37°31' E 025°07'1110.7
2014-Jul-16 11:33N 37°28' E 025°20'0 0.0
2014-Jul-16 10:33N 37°28' E 025°20'8 8.1
2014-Jul-16 09:34N 37°31' E 025°10'1211.7
2014-Jul-16 08:32N 37°26' E 024°57'1312.3
2014-Jul-16 07:31N 37°31' E 024°42'2422.5
2014-Jul-16 06:27N 37°32' E 024°12'2423.1
2014-Jul-16 05:23N 37°40' E 023°43'1720.3
2014-Jul-16 04:33N 37°57' E 023°38'0 0.2
2014-Jul-16 03:33N 37°57' E 023°38'0 0.0
2014-Jul-16 02:34N 37°57' E 023°38'0 0.0
2014-Jul-16 01:33N 37°57' E 023°38'0 0.0
2014-Jul-16 00:33N 37°57' E 023°38'0 0.0
2014-Jul-15 23:33N 37°57' E 023°38'0 0.0
2014-Jul-15 22:34N 37°57' E 023°38'0 0.0
2014-Jul-15 21:33N 37°57' E 023°38'0 0.0
2014-Jul-15 20:33N 37°57' E 023°38'0 0.0
2014-Jul-15 19:34N 37°57' E 023°38'0 0.0
2014-Jul-15 18:34N 37°57' E 023°38'0 0.0
2014-Jul-15 17:34N 37°57' E 023°38'2 1.6
2014-Jul-15 16:34N 37°56' E 023°37'4420.7
2014-Jul-15 14:26N 37°31' E 024°23'2722.9
2014-Jul-15 13:15N 37°30' E 024°57'3 5.0
2014-Jul-15 12:33N 37°26' E 024°56'1313.1
2014-Jul-15 11:32N 37°30' E 025°13'6 5.7
2014-Jul-15 10:33N 37°28' E 025°20'7 7.3
2014-Jul-15 09:32N 37°31' E 025°11'1212.3
2014-Jul-15 08:31N 37°26' E 024°57'1513.3
2014-Jul-15 07:23N 37°31' E 024°38'1922.7
2014-Jul-15 06:32N 37°31' E 024°14'2522.8
2014-Jul-15 05:26N 37°39' E 023°44'1820.3
2014-Jul-15 04:34N 37°57' E 023°38'0 0.2
2014-Jul-15 03:33N 37°57' E 023°38'0 0.0
2014-Jul-15 02:34N 37°57' E 023°38'0 0.0
2014-Jul-15 01:34N 37°57' E 023°38'0 0.0
2014-Jul-15 00:33N 37°57' E 023°38'0 0.0
2014-Jul-14 23:34N 37°57' E 023°38'0 0.0
2014-Jul-14 22:33N 37°57' E 023°38'0 0.0
2014-Jul-14 21:33N 37°57' E 023°38'0 0.0
2014-Jul-14 20:34N 37°57' E 023°38'0 0.0
2014-Jul-14 19:33N 37°57' E 023°38'0 0.0
2014-Jul-14 18:34N 37°57' E 023°38'0 0.0
2014-Jul-14 17:34N 37°57' E 023°38'3 3.2
2014-Jul-14 16:33N 37°54' E 023°38'4221.0
2014-Jul-14 14:32N 37°31' E 024°23'2722.5
2014-Jul-14 13:21N 37°29' E 024°57'3 3.5
2014-Jul-14 12:33N 37°26' E 024°57'1313.0
2014-Jul-14 11:33N 37°30' E 025°12'6 6.0
2014-Jul-14 10:33N 37°28' E 025°20'4 4.3
2014-Jul-14 09:33N 37°29' E 025°14'1414.4
2014-Jul-14 08:33N 37°26' E 024°57'1110.7
2014-Jul-14 07:33N 37°31' E 024°45'2922.9
2014-Jul-14 06:19N 37°33' E 024°09'2123.3
2014-Jul-14 05:25N 37°40' E 023°44'16 1.3
2014-Jul-13 16:30N 37°56' E 023°37'4720.4
2014-Jul-13 14:14N 37°31' E 024°27'1523.1
2014-Jul-13 13:33N 37°31' E 024°46'10 9.5
2014-Jul-13 12:31N 37°26' E 024°57'1313.2
2014-Jul-13 11:34N 37°30' E 025°12'6 6.2
2014-Jul-13 10:34N 37°28' E 025°19'5 5.0
2014-Jul-13 09:33N 37°30' E 025°14'1413.8
2014-Jul-13 08:32N 37°26' E 024°57'1110.8
2014-Jul-13 07:32N 37°31' E 024°44'4922.7
2014-Jul-13 05:24N 37°41' E 023°44'  
Track history (hours):
 
Tides and Currents Weather Stations Pressure Air Temp Water Temp Dewpoint Dewpoint Depression Visibility Wind Speed Wind Dir Waves Ship Positions

Blue Star Naxos

Last reported at 2014-Jul-23 00:34 UTC. Time now 2014-Jul-23 03:15 UTC.
Position N 37°57' E 023°38'.

Length 124 m; draft 5 m.

Type: Passenger vessel. MMSI: 239923000.

Date/timePositionNaut miles runAvg speedWind from/ knotsBaromVisibWave heightAir tempDewpointWater temp
2014-Jul-23 00:34N 37°57' E 023°38'0 0.0
2014-Jul-22 23:34N 37°57' E 023°38'0 0.0
2014-Jul-22 22:34N 37°57' E 023°38'0 0.0
2014-Jul-22 21:34N 37°57' E 023°38'0 0.0
2014-Jul-22 20:34N 37°57' E 023°38'0 0.0
2014-Jul-22 19:33N 37°57' E 023°38'0 0.0
2014-Jul-22 18:33N 37°57' E 023°38'0 0.0
2014-Jul-22 17:34N 37°57' E 023°38'1 1.2
2014-Jul-22 16:34N 37°56' E 023°37'2120.5
2014-Jul-22 15:32N 37°39' E 023°53'2522.5
2014-Jul-22 14:25N 37°31' E 024°23'2023.0
2014-Jul-22 13:33N 37°31' E 024°48'8 8.4
2014-Jul-22 12:33N 37°26' E 024°57'1414.0
2014-Jul-22 11:33N 37°30' E 025°14'5 5.0
2014-Jul-22 10:33N 37°28' E 025°19'6 5.9
2014-Jul-22 09:33N 37°30' E 025°13'1413.4
2014-Jul-22 08:33N 37°26' E 024°57'1111.1
2014-Jul-22 07:33N 37°31' E 024°44'2423.1
2014-Jul-22 06:32N 37°31' E 024°15'2723.0
2014-Jul-22 05:21N 37°41' E 023°43'1620.5
2014-Jul-22 04:33N 37°57' E 023°38'0 0.2
2014-Jul-22 03:32N 37°57' E 023°38'0 0.0
2014-Jul-22 02:33N 37°57' E 023°38'0 0.0
2014-Jul-22 01:33N 37°57' E 023°38'0 0.0
2014-Jul-22 00:31N 37°57' E 023°38'0 0.0
2014-Jul-21 23:33N 37°57' E 023°38'0 0.0
2014-Jul-21 22:31N 37°57' E 023°38'0 0.0
2014-Jul-21 21:33N 37°57' E 023°38'0 0.0
2014-Jul-21 20:33N 37°57' E 023°38'0 0.0
2014-Jul-21 20:18N 37°57' E 023°38'0 0.0
2014-Jul-21 19:32N 37°57' E 023°38'0 0.0
2014-Jul-21 18:33N 37°57' E 023°38'0 0.0
2014-Jul-21 17:33N 37°57' E 023°38'2 2.5
2014-Jul-21 16:33N 37°55' E 023°38'4420.9
2014-Jul-21 14:27N 37°31' E 024°24'2622.5
2014-Jul-21 13:18N 37°29' E 024°57'4 4.0
2014-Jul-21 12:20N 37°28' E 025°02'911.2
2014-Jul-21 11:34N 37°30' E 025°12'6 6.2
2014-Jul-21 10:34N 37°28' E 025°20'6 6.0
2014-Jul-21 09:33N 37°30' E 025°13'1312.5
2014-Jul-21 08:29N 37°26' E 024°57'1212.6
2014-Jul-21 07:31N 37°31' E 024°42'2522.7
2014-Jul-21 06:25N 37°32' E 024°11'2423.0
2014-Jul-21 05:24N 37°41' E 023°44'15 1.2
2014-Jul-20 16:33N 37°55' E 023°38'4420.8
2014-Jul-20 14:27N 37°31' E 024°24'2622.8
2014-Jul-20 13:18N 37°30' E 024°57'4 4.0
2014-Jul-20 12:22N 37°28' E 025°01'911.6
2014-Jul-20 11:33N 37°30' E 025°13'6 5.7
2014-Jul-20 10:33N 37°28' E 025°19'9 9.1
2014-Jul-20 09:33N 37°32' E 025°09'1211.6
2014-Jul-20 08:33N 37°26' E 024°57'1212.2
2014-Jul-20 07:33N 37°31' E 024°42'2222.3
2014-Jul-20 06:33N 37°30' E 024°14'38 2.7
2014-Jul-19 16:30N 37°55' E 023°38'4320.6
2014-Jul-19 14:23N 37°31' E 024°23'2022.8
2014-Jul-19 13:31N 37°31' E 024°48'9 8.6
2014-Jul-19 12:32N 37°26' E 024°57'1313.1
2014-Jul-19 11:33N 37°30' E 025°12'6 6.2
2014-Jul-19 10:33N 37°28' E 025°19'9 9.1
2014-Jul-19 09:34N 37°32' E 025°09'1111.3
2014-Jul-19 08:33N 37°26' E 024°57'1111.6
2014-Jul-19 07:33N 37°31' E 024°43'2522.7
2014-Jul-19 06:29N 37°32' E 024°12'2122.9
2014-Jul-19 05:33N 37°39' E 023°47'1919.1
2014-Jul-19 04:33N 37°57' E 023°38'0 0.2
2014-Jul-19 03:33N 37°57' E 023°38'1211.7
2014-Jul-19 02:34N 37°46' E 023°43'6822.3
2014-Jul-18 23:31N 37°09' E 024°55'1211.9
2014-Jul-18 22:32N 37°05' E 025°09'1817.9
2014-Jul-18 21:32N 37°11' E 024°48'5123.0
2014-Jul-18 19:19N 37°35' E 023°51'1722.2
2014-Jul-18 18:32N 37°48' E 023°38'8 8.5
2014-Jul-18 17:33N 37°57' E 023°38'0 0.3
2014-Jul-18 16:33N 37°57' E 023°38'6120.0
2014-Jul-18 13:29N 37°31' E 024°49'8 8.2
2014-Jul-18 12:31N 37°26' E 024°57'1313.4
2014-Jul-18 11:33N 37°30' E 025°12'6 6.1
2014-Jul-18 10:32N 37°28' E 025°20'7 7.0
2014-Jul-18 09:33N 37°31' E 025°12'1312.5
2014-Jul-18 08:32N 37°26' E 024°57'1412.8
2014-Jul-18 07:25N 37°31' E 024°40'4922.0
2014-Jul-18 05:13N 37°44' E 023°41'13 2.6
2014-Jul-18 00:19N 37°57' E 023°38'0 0.0
2014-Jul-17 23:31N 37°57' E 023°38'0 0.0
2014-Jul-17 22:33N 37°57' E 023°38'0 0.0
2014-Jul-17 21:28N 37°57' E 023°38'0 0.0
2014-Jul-17 20:24N 37°57' E 023°38'0 0.0
2014-Jul-17 19:27N 37°57' E 023°38'0 0.0
2014-Jul-17 18:29N 37°57' E 023°38'0 0.0
2014-Jul-17 17:33N 37°57' E 023°38'1 1.4
2014-Jul-17 16:33N 37°56' E 023°37'6220.6
2014-Jul-17 13:34N 37°31' E 024°48'10 8.7
2014-Jul-17 12:25N 37°27' E 024°60'1113.0
2014-Jul-17 11:34N 37°30' E 025°13'5 5.3
2014-Jul-17 10:33N 37°28' E 025°19'7 7.3
2014-Jul-17 09:33N 37°31' E 025°11'1212.1
2014-Jul-17 08:32N 37°26' E 024°57'1111.5
2014-Jul-17 07:33N 37°31' E 024°43'2622.7
2014-Jul-17 06:25N 37°32' E 024°11'2323.1
2014-Jul-17 05:25N 37°40' E 023°44'1819.3
2014-Jul-17 04:31N 37°57' E 023°38'0 0.0
2014-Jul-17 03:33N 37°57' E 023°38'0 0.0
2014-Jul-17 02:33N 37°57' E 023°38'0 0.0
2014-Jul-17 01:33N 37°57' E 023°38'0 0.0
2014-Jul-17 00:31N 37°57' E 023°38'0 0.0
2014-Jul-16 23:33N 37°57' E 023°38'0 0.0
2014-Jul-16 22:33N 37°57' E 023°38'0 0.0
2014-Jul-16 21:32N 37°57' E 023°38'0 0.0
2014-Jul-16 20:32N 37°57' E 023°38'0 0.0
2014-Jul-16 19:33N 37°57' E 023°38'0 0.0
2014-Jul-16 18:31N 37°57' E 023°38'0 0.0
2014-Jul-16 17:33N 37°57' E 023°38'1313.5
2014-Jul-16 16:33N 37°44' E 023°44'4422.1
2014-Jul-16 14:33N 37°31' E 024°37'1615.8
2014-Jul-16 13:33N 37°26' E 024°57'9 9.1
2014-Jul-16 12:34N 37°31' E 025°07'1110.7
2014-Jul-16 11:33N 37°28' E 025°20'0 0.0
2014-Jul-16 10:33N 37°28' E 025°20'8 8.1
2014-Jul-16 09:34N 37°31' E 025°10'1211.7
2014-Jul-16 08:32N 37°26' E 024°57'1312.3
2014-Jul-16 07:31N 37°31' E 024°42'2422.5
2014-Jul-16 06:27N 37°32' E 024°12'2423.1
2014-Jul-16 05:23N 37°40' E 023°43'1720.3
2014-Jul-16 04:33N 37°57' E 023°38'0 0.2
2014-Jul-16 03:33N 37°57' E 023°38'0 0.0
2014-Jul-16 02:34N 37°57' E 023°38'0 0.0
2014-Jul-16 01:33N 37°57' E 023°38'0 0.0
2014-Jul-16 00:33N 37°57' E 023°38'0 0.0
2014-Jul-15 23:33N 37°57' E 023°38'0 0.0
2014-Jul-15 22:34N 37°57' E 023°38'0 0.0
2014-Jul-15 21:33N 37°57' E 023°38'0 0.0
2014-Jul-15 20:33N 37°57' E 023°38'0 0.0
2014-Jul-15 19:34N 37°57' E 023°38'0 0.0
2014-Jul-15 18:34N 37°57' E 023°38'0 0.0
2014-Jul-15 17:34N 37°57' E 023°38'2 1.6
2014-Jul-15 16:34N 37°56' E 023°37'4420.7
2014-Jul-15 14:26N 37°31' E 024°23'2722.9
2014-Jul-15 13:15N 37°30' E 024°57'3 5.0
2014-Jul-15 12:33N 37°26' E 024°56'1313.1
2014-Jul-15 11:32N 37°30' E 025°13'6 5.7
2014-Jul-15 10:33N 37°28' E 025°20'7 7.3
2014-Jul-15 09:32N 37°31' E 025°11'1212.3
2014-Jul-15 08:31N 37°26' E 024°57'1513.3
2014-Jul-15 07:23N 37°31' E 024°38'1922.7
2014-Jul-15 06:32N 37°31' E 024°14'2522.8
2014-Jul-15 05:26N 37°39' E 023°44'1820.3
2014-Jul-15 04:34N 37°57' E 023°38'0 0.2
2014-Jul-15 03:33N 37°57' E 023°38'0 0.0
2014-Jul-15 02:34N 37°57' E 023°38'0 0.0
2014-Jul-15 01:34N 37°57' E 023°38'0 0.0
2014-Jul-15 00:33N 37°57' E 023°38'0 0.0
2014-Jul-14 23:34N 37°57' E 023°38'0 0.0
2014-Jul-14 22:33N 37°57' E 023°38'0 0.0
2014-Jul-14 21:33N 37°57' E 023°38'0 0.0
2014-Jul-14 20:34N 37°57' E 023°38'0 0.0
2014-Jul-14 19:33N 37°57' E 023°38'0 0.0
2014-Jul-14 18:34N 37°57' E 023°38'0 0.0
2014-Jul-14 17:34N 37°57' E 023°38'3 3.2
2014-Jul-14 16:33N 37°54' E 023°38'4221.0
2014-Jul-14 14:32N 37°31' E 024°23'2722.5
2014-Jul-14 13:21N 37°29' E 024°57'3 3.5
2014-Jul-14 12:33N 37°26' E 024°57'1313.0
2014-Jul-14 11:33N 37°30' E 025°12'6 6.0
2014-Jul-14 10:33N 37°28' E 025°20'4 4.3
2014-Jul-14 09:33N 37°29' E 025°14'1414.4
2014-Jul-14 08:33N 37°26' E 024°57'1110.7
2014-Jul-14 07:33N 37°31' E 024°45'2922.9
2014-Jul-14 06:19N 37°33' E 024°09'2123.3
2014-Jul-14 05:25N 37°40' E 023°44'16 1.3
2014-Jul-13 16:30N 37°56' E 023°37'4720.4
2014-Jul-13 14:14N 37°31' E 024°27'1523.1
2014-Jul-13 13:33N 37°31' E 024°46'10 9.5
2014-Jul-13 12:31N 37°26' E 024°57'1313.2
2014-Jul-13 11:34N 37°30' E 025°12'6 6.2
2014-Jul-13 10:34N 37°28' E 025°19'5 5.0
2014-Jul-13 09:33N 37°30' E 025°14'1413.8
2014-Jul-13 08:32N 37°26' E 024°57'1110.8
2014-Jul-13 07:32N 37°31' E 024°44'4922.7
2014-Jul-13 05:24N 37°41' E 023°44'  

Dump ship's entire track history